TimeCDT,TemperatureF,Dew PointF,Humidity,Sea Level PressureIn,VisibilityMPH,Wind Direction,Wind SpeedMPH,Gust SpeedMPH,PrecipitationIn,Events,Conditions,WindDirDegrees,DateUTC
12:54 AM,35.1,32.0,89,29.96,10.0,North,19.6,26.5,0.01,Rain,Light Rain,10,2013-05-04 05:54:00
1:54 AM,35.1,32.0,89,29.94,6.0,North,18.4,25.3,0.03,Rain,Light Rain,360,2013-05-04 06:54:00
2:54 AM,35.1,33.1,92,29.92,10.0,North,15.0,-,0.03,Rain,Light Rain,360,2013-05-04 07:54:00
3:54 AM,36.0,33.1,89,29.91,10.0,North,13.8,-,0.00,Rain,Light Rain,360,2013-05-04 08:54:00
4:39 AM,36.0,34.0,93,29.89,10.0,North,12.7,-,0.00,Rain,Light Rain,10,2013-05-04 09:39:00
4:54 AM,36.0,34.0,93,29.91,10.0,North,13.8,-,0.00,Rain,Light Rain,10,2013-05-04 09:54:00
5:54 AM,37.0,34.0,89,29.92,10.0,North,9.2,-,0.00,Rain,Light Rain,360,2013-05-04 10:54:00
6:54 AM,37.0,35.1,93,29.93,2.0,North,11.5,-,0.00,,Overcast,10,2013-05-04 11:54:00
7:35 AM,37.9,36.0,93,29.91,1.5,North,10.4,-,N/A,,Overcast,360,2013-05-04 12:35:00
7:38 AM,37.9,36.0,93,29.91,0.5,North,11.5,18.4,N/A,,Overcast,10,2013-05-04 12:38:00
7:54 AM,37.9,36.0,93,29.94,0.5,North,6.9,-,0.00,Rain,Light Rain,10,2013-05-04 12:54:00
8:54 AM,39.0,37.0,93,29.96,2.0,North,8.1,-,0.02,,Light Drizzle,360,2013-05-04 13:54:00
9:24 AM,39.0,37.0,93,29.95,1.5,North,10.4,-,0.00,,Light Drizzle,360,2013-05-04 14:24:00
9:32 AM,39.9,37.9,93,29.95,1.0,North,8.1,-,0.00,,Light Drizzle,360,2013-05-04 14:32:00
9:54 AM,39.9,39.0,97,29.98,1.0,North,10.4,-,0.00,,Light Drizzle,10,2013-05-04 14:54:00
10:54 AM,42.1,39.9,92,30.00,1.0,North,6.9,-,0.00,,Light Drizzle,10,2013-05-04 15:54:00
11:54 AM,44.1,41.0,89,30.01,2.0,North,8.1,-,0.00,,Overcast,360,2013-05-04 16:54:00
12:54 PM,46.0,43.0,89,30.01,2.0,North,9.2,-,N/A,,Overcast,360,2013-05-04 17:54:00
1:08 PM,46.9,44.1,90,30.00,4.0,North,8.1,-,N/A,,Overcast,10,2013-05-04 18:08:00
1:54 PM,48.9,44.1,83,30.01,6.0,NNW,5.8,-,N/A,,Haze,330,2013-05-04 18:54:00
2:06 PM,48.9,45.0,86,30.00,6.0,North,8.1,-,N/A,,Overcast,360,2013-05-04 19:06:00
2:54 PM,48.9,45.0,86,30.02,4.0,NNW,6.9,-,0.00,,Light Drizzle,340,2013-05-04 19:54:00
3:25 PM,50.0,46.4,87,30.00,5.0,NNW,9.2,-,N/A,Rain,Light Rain,330,2013-05-04 20:25:00
3:54 PM,48.9,46.0,90,30.02,3.0,NNW,8.1,-,0.00,,Light Drizzle,330,2013-05-04 20:54:00
4:54 PM,48.9,46.0,90,30.02,4.0,NW,10.4,-,0.01,Rain,Light Rain,320,2013-05-04 21:54:00
5:30 PM,48.0,46.0,93,30.01,2.5,NW,8.1,-,0.00,Rain,Light Rain,320,2013-05-04 22:30:00
5:42 PM,48.0,46.0,93,30.02,1.8,NW,8.1,-,0.03,Rain,Rain,320,2013-05-04 22:42:00
5:54 PM,48.0,45.0,89,30.04,1.5,NW,9.2,-,0.09,Rain,Rain,310,2013-05-04 22:54:00
6:09 PM,46.9,45.0,93,30.02,3.0,NW,11.5,-,0.00,Rain,Light Rain,320,2013-05-04 23:09:00
6:16 PM,46.9,45.0,93,30.02,3.0,NW,10.4,-,0.00,Rain,Light Rain,320,2013-05-04 23:16:00
6:54 PM,46.0,43.0,89,30.04,4.0,NW,10.4,-,0.00,Rain,Light Rain,320,2013-05-04 23:54:00
7:54 PM,45.0,42.1,90,30.06,3.0,NW,8.1,-,0.00,Rain,Light Rain,320,2013-05-05 00:54:00
8:31 PM,44.1,42.1,93,30.05,3.0,WNW,6.9,-,0.02,Rain,Light Rain,290,2013-05-05 01:31:00
8:54 PM,44.1,41.0,89,30.06,3.0,NW,11.5,-,0.04,Rain,Light Rain,310,2013-05-05 01:54:00
9:11 PM,44.1,42.1,93,30.05,3.0,NW,5.8,-,0.02,Rain,Light Rain,320,2013-05-05 02:11:00
9:54 PM,44.1,42.1,93,30.08,3.0,NNW,6.9,-,0.04,Rain,Light Rain,330,2013-05-05 02:54:00
10:54 PM,45.0,42.1,90,30.07,4.0,NW,9.2,-,0.01,Rain,Light Rain,320,2013-05-05 03:54:00
11:54 PM,45.0,43.0,93,30.09,5.0,North,6.9,-,0.02,Rain,Light Rain,10,2013-05-05 04:54:00